Mary Turecamo — WDD8880 — position and weather

sailwx.info

Track history (hours):
 
Tides and Currents Weather Stations Pressure Air Temp Water Temp Dewpoint Dewpoint Depression Visibility Wind Speed Wind Dir Waves Ship Positions

Mary Turecamo

Owner: Moran Towing Corporation, New Canaan, CT. More information available from US FCC via Universal Licensing System and Coast Guard Vessel Documentation Center.

Last reported at 2018-Jun-21 02:29 UTC. Time now 2018-Jun-21 02:40 UTC.
Position N 40°38' W 074°08'.

Length 36 m; draft 6.5 m.

Type: Towing. MMSI: 367304010.

Date/timePositionNaut miles runAvg speedWind from/ knotsBaromVisibWave heightAir tempDewpointWater temp
2018-Jun-21 02:29N 40°38' W 074°08'0 0.0
2018-Jun-21 01:47N 40°38' W 074°08'0 0.0
2018-Jun-21 01:29N 40°38' W 074°08'0 0.0
2018-Jun-21 00:59N 40°38' W 074°08'0 0.0
2018-Jun-21 00:29N 40°38' W 074°08'0 0.0
2018-Jun-20 23:59N 40°38' W 074°08'0 0.0
2018-Jun-20 23:17N 40°38' W 074°08'0 0.0
2018-Jun-20 22:47N 40°38' W 074°08'0 0.0
2018-Jun-20 21:35N 40°38' W 074°08'0 0.0
2018-Jun-20 21:23N 40°38' W 074°08'0 0.0
2018-Jun-20 19:50N 40°38' W 074°08'0 0.0
2018-Jun-20 19:23N 40°38' W 074°08'0 0.0
2018-Jun-20 18:59N 40°38' W 074°08'0 0.0
2018-Jun-20 18:29N 40°38' W 074°08'0 0.0
2018-Jun-20 17:41N 40°38' W 074°08'0 0.0
2018-Jun-20 17:29N 40°38' W 074°08'0 0.0
2018-Jun-20 16:59N 40°38' W 074°08'0 0.0
2018-Jun-20 16:29N 40°38' W 074°08'0 0.0
2018-Jun-20 15:56N 40°38' W 074°08'0 0.0
2018-Jun-20 15:11N 40°38' W 074°08'0 0.0
2018-Jun-20 14:53N 40°38' W 074°08'0 0.0
2018-Jun-20 14:23N 40°38' W 074°08'0 0.0
2018-Jun-20 13:59N 40°38' W 074°08'0 0.0
2018-Jun-20 13:29N 40°38' W 074°08'0 0.0
2018-Jun-20 12:53N 40°38' W 074°08'0 0.0
2018-Jun-20 12:29N 40°38' W 074°08'0 0.0
2018-Jun-20 11:59N 40°38' W 074°08'0 0.0
2018-Jun-20 11:29N 40°38' W 074°08'0 0.0
2018-Jun-20 10:59N 40°38' W 074°08'0 0.0
2018-Jun-20 10:29N 40°38' W 074°08'0 0.0
2018-Jun-20 09:59N 40°38' W 074°08'0 0.0
2018-Jun-20 09:29N 40°38' W 074°08'0 0.0
2018-Jun-20 08:59N 40°38' W 074°08'0 0.0
2018-Jun-20 08:30N 40°38' W 074°08'0 0.0
2018-Jun-20 07:59N 40°38' W 074°08'0 0.0
2018-Jun-20 07:29N 40°38' W 074°08'0 0.0
2018-Jun-20 07:00N 40°38' W 074°08'2 4.0
2018-Jun-20 06:30N 40°39' W 074°10'33 4.3
2018-Jun-19 22:51N 40°08' W 073°55'3 7.4
2018-Jun-19 22:30N 40°06' W 073°55'4 7.4
2018-Jun-19 22:00N 40°02' W 073°56'4 7.3
2018-Jun-19 21:30N 39°58' W 073°56'4 7.2
2018-Jun-19 21:00N 39°55' W 073°57'4 7.2
2018-Jun-19 20:28N 39°51' W 073°57'3 7.3
2018-Jun-19 20:00N 39°48' W 073°58'4 7.3
2018-Jun-19 19:29N 39°44' W 073°58'4 7.2
2018-Jun-19 19:00N 39°41' W 074°01'4 7.2
2018-Jun-19 18:30N 39°38' W 074°03'4 7.2
2018-Jun-19 18:00N 39°34' W 074°05'4 7.2
2018-Jun-19 17:29N 39°31' W 074°07'59 4.5
2018-Jun-19 04:15N 39°16' W 075°21'1 5.7
2018-Jun-19 04:00N 39°17' W 075°22'2 2.9
2018-Jun-19 03:23N 39°19' W 075°24'2 4.9
2018-Jun-19 03:00N 39°20' W 075°25'4 8.9
2018-Jun-19 02:30N 39°23' W 075°29'5 9.4
2018-Jun-19 02:00N 39°27' W 075°33'5 9.3
2018-Jun-19 01:30N 39°32' W 075°33'4 7.1
2018-Jun-19 01:00N 39°35' W 075°35'1 1.4
2018-Jun-19 00:30N 39°35' W 075°36'0 0.1
2018-Jun-19 00:00N 39°35' W 075°36'0 0.0
2018-Jun-18 23:27N 39°35' W 075°36'0 0.0
2018-Jun-18 22:57N 39°35' W 075°36'0 0.0
2018-Jun-18 22:27N 39°35' W 075°36'0 0.0
2018-Jun-18 22:00N 39°35' W 075°36'0 0.0
2018-Jun-18 21:27N 39°35' W 075°36'0 0.0
2018-Jun-18 20:57N 39°35' W 075°36'0 0.0
2018-Jun-18 20:27N 39°35' W 075°36'0 0.0
2018-Jun-18 19:57N 39°35' W 075°36'0 0.0
2018-Jun-18 19:27N 39°35' W 075°36'0 0.0
2018-Jun-18 18:57N 39°35' W 075°36'0 0.0
2018-Jun-18 18:24N 39°35' W 075°36'0 0.0
2018-Jun-18 17:51N 39°35' W 075°36'0 0.0
2018-Jun-18 17:30N 39°35' W 075°36'0 0.0
2018-Jun-18 16:54N 39°35' W 075°36'0 0.0
2018-Jun-18 16:30N 39°35' W 075°36'0 0.0
2018-Jun-18 16:00N 39°35' W 075°36'0 0.0
2018-Jun-18 15:30N 39°35' W 075°36'0 0.0
2018-Jun-18 15:00N 39°35' W 075°36'0 0.0
2018-Jun-18 14:30N 39°35' W 075°36'0 0.0
2018-Jun-18 14:00N 39°35' W 075°36'0 0.0
2018-Jun-18 13:30N 39°35' W 075°36'0 0.0
2018-Jun-18 13:00N 39°35' W 075°36'0 0.0
2018-Jun-18 12:30N 39°35' W 075°36'0 0.0
2018-Jun-18 12:00N 39°35' W 075°36'0 0.0
2018-Jun-18 11:21N 39°35' W 075°36'0 0.0
2018-Jun-18 11:00N 39°35' W 075°36'0 0.0
2018-Jun-18 10:30N 39°35' W 075°36'0 0.0
2018-Jun-18 10:00N 39°35' W 075°36'0 0.0
2018-Jun-18 09:30N 39°35' W 075°36'0 0.0
2018-Jun-18 09:00N 39°35' W 075°36'0 0.0
2018-Jun-18 08:27N 39°35' W 075°36'0 0.0
2018-Jun-18 08:00N 39°35' W 075°36'0 0.0
2018-Jun-18 07:09N 39°35' W 075°36'0 0.1
2018-Jun-18 07:00N 39°35' W 075°36'0 0.0
2018-Jun-18 06:30N 39°35' W 075°36'0 0.0
2018-Jun-18 06:00N 39°35' W 075°36'0 0.0
2018-Jun-18 05:24N 39°35' W 075°36'0 0.0
2018-Jun-18 05:00N 39°35' W 075°36'0 0.0
2018-Jun-18 04:30N 39°35' W 075°36'0 0.0
2018-Jun-18 04:00N 39°35' W 075°36'1 2.4
2018-Jun-18 03:29N 39°35' W 075°34'2 4.1
2018-Jun-18 03:00N 39°37' W 075°35'5 9.8
2018-Jun-18 02:30N 39°41' W 075°31'510.8
2018-Jun-18 02:00N 39°46' W 075°29'510.5
2018-Jun-18 01:30N 39°49' W 075°23'510.5
2018-Jun-18 01:00N 39°51' W 075°17'510.0
2018-Jun-18 00:31N 39°53' W 075°11'1 1.6
2018-Jun-18 00:00N 39°53' W 075°10'0 0.0
2018-Jun-17 23:28N 39°53' W 075°10'0 0.2
2018-Jun-17 22:58N 39°53' W 075°10'0 0.0
2018-Jun-17 22:28N 39°53' W 075°10'0 0.0
2018-Jun-17 21:58N 39°53' W 075°10'0 0.0
2018-Jun-17 21:28N 39°53' W 075°10'0 0.0
2018-Jun-17 20:58N 39°53' W 075°10'0 0.0
2018-Jun-17 20:28N 39°53' W 075°10'0 0.0
2018-Jun-17 19:58N 39°53' W 075°10'0 0.0
2018-Jun-17 19:28N 39°53' W 075°10'0 0.0
2018-Jun-17 18:58N 39°53' W 075°10'0 0.0
2018-Jun-17 18:29N 39°53' W 075°10'0 0.0
2018-Jun-17 18:00N 39°53' W 075°10'0 0.0
2018-Jun-17 17:30N 39°53' W 075°10'0 0.1
2018-Jun-17 17:00N 39°53' W 075°10'0 0.1
2018-Jun-17 16:30N 39°53' W 075°10'0 0.9
2018-Jun-17 16:00N 39°53' W 075°11'0 0.0
2018-Jun-17 15:30N 39°53' W 075°11'0 0.0
2018-Jun-17 15:00N 39°53' W 075°11'0 0.0
2018-Jun-17 14:30N 39°53' W 075°11'0 0.0
2018-Jun-17 14:00N 39°53' W 075°11'0 0.0
2018-Jun-17 13:30N 39°53' W 075°11'0 0.0
2018-Jun-17 13:00N 39°53' W 075°11'0 0.0
2018-Jun-17 12:30N 39°53' W 075°11'0 0.0
2018-Jun-17 12:01N 39°53' W 075°11'0 0.9
2018-Jun-17 11:29N 39°53' W 075°10'0 0.0
2018-Jun-17 10:59N 39°53' W 075°10'0 0.0
2018-Jun-17 10:28N 39°53' W 075°10'0 0.2
2018-Jun-17 09:59N 39°53' W 075°10'0 0.0
2018-Jun-17 09:29N 39°53' W 075°10'0 0.0
2018-Jun-17 08:59N 39°53' W 075°10'0 0.0
2018-Jun-17 08:29N 39°53' W 075°10'0 0.0
2018-Jun-17 07:59N 39°53' W 075°10'0 0.0
2018-Jun-17 07:29N 39°53' W 075°10'0 0.0
2018-Jun-17 06:59N 39°53' W 075°10'0 0.0
2018-Jun-17 06:29N 39°53' W 075°10'0 0.0
2018-Jun-17 05:59N 39°53' W 075°10'0 0.0
2018-Jun-17 05:29N 39°53' W 075°10'0 0.0
2018-Jun-17 04:59N 39°53' W 075°10'0 0.1
2018-Jun-17 04:29N 39°53' W 075°10'0 0.1
2018-Jun-17 03:59N 39°53' W 075°10'0 0.2
2018-Jun-17 03:29N 39°53' W 075°10'0 0.0
2018-Jun-17 02:59N 39°53' W 075°10'0 0.0
2018-Jun-17 02:29N 39°53' W 075°10'0 0.0
2018-Jun-17 01:59N 39°53' W 075°10'0 0.0
2018-Jun-17 01:29N 39°53' W 075°10'0 0.0
2018-Jun-17 00:59N 39°53' W 075°10'0 0.0
2018-Jun-17 00:29N 39°53' W 075°10'0 0.0
2018-Jun-16 23:59N 39°53' W 075°10'0 0.0
2018-Jun-16 23:29N 39°53' W 075°10'0 0.0
2018-Jun-16 22:56N 39°53' W 075°10'0 0.0
2018-Jun-16 22:29N 39°53' W 075°10'0 0.3
2018-Jun-16 21:59N 39°53' W 075°10'0 0.0
2018-Jun-16 21:29N 39°53' W 075°10'0 0.0
2018-Jun-16 20:59N 39°53' W 075°10'0 0.0
2018-Jun-16 20:29N 39°53' W 075°10'0 0.0
2018-Jun-16 19:59N 39°53' W 075°10'0 0.0
2018-Jun-16 19:29N 39°53' W 075°10'0 0.0
2018-Jun-16 18:59N 39°53' W 075°10'0 0.0
2018-Jun-16 18:29N 39°53' W 075°10'0 0.0
2018-Jun-16 17:58N 39°53' W 075°10'0 0.0
2018-Jun-16 17:26N 39°53' W 075°10'0 0.0
2018-Jun-16 16:59N 39°53' W 075°10'0 0.0
2018-Jun-16 16:29N 39°53' W 075°10'0 0.3
2018-Jun-16 15:59N 39°53' W 075°10'0 0.1
2018-Jun-16 15:29N 39°53' W 075°10'0 0.0
2018-Jun-16 14:58N 39°53' W 075°10'0 0.0
2018-Jun-16 14:29N 39°53' W 075°10'0 0.0
2018-Jun-16 13:58N 39°53' W 075°10'0 0.0
2018-Jun-16 13:28N 39°53' W 075°10'0 0.0
2018-Jun-16 12:58N 39°53' W 075°10'0 0.0
2018-Jun-16 12:28N 39°53' W 075°10'0 0.0
2018-Jun-16 11:55N 39°53' W 075°10'0 0.0
2018-Jun-16 11:28N 39°53' W 075°10'0 0.0
2018-Jun-16 10:59N 39°53' W 075°10'0 0.0
2018-Jun-16 10:29N 39°53' W 075°10'0 0.0
2018-Jun-16 09:58N 39°53' W 075°10'0 0.2
2018-Jun-16 09:28N 39°53' W 075°10'0 0.1
2018-Jun-16 08:58N 39°53' W 075°10'0 0.0
2018-Jun-16 08:28N 39°53' W 075°10'0 0.0
2018-Jun-16 07:58N 39°53' W 075°10'0 0.0
2018-Jun-16 07:28N 39°53' W 075°10'0 0.0
2018-Jun-16 06:58N 39°53' W 075°10'0 0.0
2018-Jun-16 06:28N 39°53' W 075°10'0 0.0
2018-Jun-16 05:58N 39°53' W 075°10'0 0.0
2018-Jun-16 05:29N 39°53' W 075°10'0 0.0
2018-Jun-16 04:58N 39°53' W 075°10'0 0.0
2018-Jun-16 04:28N 39°53' W 075°10'0 0.0
2018-Jun-16 03:58N 39°53' W 075°10'0 0.1
2018-Jun-16 03:25N 39°53' W 075°10'0 0.2
2018-Jun-16 02:58N 39°53' W 075°10'0 0.1
2018-Jun-16 02:28N 39°53' W 075°10'0 0.0
2018-Jun-16 01:59N 39°53' W 075°10'0 0.0
2018-Jun-16 01:29N 39°53' W 075°10'0 0.0
2018-Jun-16 00:58N 39°53' W 075°10'0 0.0
2018-Jun-16 00:29N 39°53' W 075°10'0 0.0
2018-Jun-15 23:59N 39°53' W 075°10'0 0.0
2018-Jun-15 23:28N 39°53' W 075°10'0 0.0
2018-Jun-15 22:58N 39°53' W 075°10'0 0.0
2018-Jun-15 22:29N 39°53' W 075°10'0 0.0
2018-Jun-15 21:58N 39°53' W 075°10'0 0.3
2018-Jun-15 21:29N 39°53' W 075°10'0 0.0
2018-Jun-15 20:59N 39°53' W 075°10'0 0.1
2018-Jun-15 20:28N 39°53' W 075°10'0 0.0
2018-Jun-15 19:50N 39°53' W 075°10'0 0.0
2018-Jun-15 19:28N 39°53' W 075°10'0 0.0
2018-Jun-15 18:58N 39°53' W 075°10'0 0.0
2018-Jun-15 18:28N 39°53' W 075°10'0 0.0
2018-Jun-15 17:58N 39°53' W 075°10'0 0.0
2018-Jun-15 17:28N 39°53' W 075°10'0 0.0
2018-Jun-15 16:58N 39°53' W 075°10'0 0.0
2018-Jun-15 16:28N 39°53' W 075°10'0 0.1
2018-Jun-15 15:58N 39°53' W 075°10'0 0.1
2018-Jun-15 15:28N 39°53' W 075°10'0 0.1
2018-Jun-15 14:58N 39°53' W 075°10'0 0.1
2018-Jun-15 14:28N 39°53' W 075°10'0 0.1
2018-Jun-15 13:58N 39°53' W 075°10'0 0.0
2018-Jun-15 13:28N 39°53' W 075°10'0 0.0
2018-Jun-15 12:55N 39°53' W 075°10'0 0.0
2018-Jun-15 12:28N 39°53' W 075°10'0 0.0
2018-Jun-15 11:58N 39°53' W 075°10'0 0.0
2018-Jun-15 11:28N 39°53' W 075°10'0 0.0
2018-Jun-15 10:58N 39°53' W 075°10'0 0.0
2018-Jun-15 10:28N 39°53' W 075°10'0 0.0
2018-Jun-15 09:58N 39°53' W 075°10'0 0.0
2018-Jun-15 09:28N 39°53' W 075°10'0 0.1
2018-Jun-15 08:58N 39°53' W 075°10'0 0.2
2018-Jun-15 08:28N 39°53' W 075°10'0 0.1
2018-Jun-15 07:58N 39°53' W 075°10'0 0.0
2018-Jun-15 07:28N 39°53' W 075°10'0 0.0
2018-Jun-15 06:58N 39°53' W 075°10'0 0.0
2018-Jun-15 06:28N 39°53' W 075°10'0 0.0
2018-Jun-15 05:58N 39°53' W 075°10'0 0.0
2018-Jun-15 05:28N 39°53' W 075°10'0 0.0
2018-Jun-15 04:58N 39°53' W 075°10'0 0.0
2018-Jun-15 04:28N 39°53' W 075°10'0 0.0
2018-Jun-15 03:58N 39°53' W 075°10'0 0.0
2018-Jun-15 03:28N 39°53' W 075°10'0 0.0
2018-Jun-15 02:58N 39°53' W 075°10'0 0.0
2018-Jun-15 02:28N 39°53' W 075°10'0 0.2
2018-Jun-15 01:58N 39°53' W 075°10'0 0.1
2018-Jun-15 01:28N 39°53' W 075°10'0 0.0
2018-Jun-15 00:58N 39°53' W 075°10'0 0.0
2018-Jun-15 00:28N 39°53' W 075°10'0 0.1
2018-Jun-14 23:58N 39°53' W 075°10'0 0.0
2018-Jun-14 23:28N 39°53' W 075°10'0 0.0
2018-Jun-14 22:58N 39°53' W 075°10'0 0.0
2018-Jun-14 22:28N 39°53' W 075°10'0 0.0
2018-Jun-14 21:58N 39°53' W 075°10'0 0.0
2018-Jun-14 21:28N 39°53' W 075°10'0 0.2
2018-Jun-14 20:58N 39°53' W 075°10'0 0.1
2018-Jun-14 20:28N 39°53' W 075°10'0 0.0
2018-Jun-14 19:58N 39°53' W 075°10'0 0.1
2018-Jun-14 19:28N 39°53' W 075°10'0 0.0
2018-Jun-14 18:58N 39°53' W 075°10'0 0.0
2018-Jun-14 18:28N 39°53' W 075°10'0 0.0
2018-Jun-14 17:58N 39°53' W 075°10'0 0.0
2018-Jun-14 17:28N 39°53' W 075°10'0 0.0
2018-Jun-14 16:58N 39°53' W 075°10'0 0.0
2018-Jun-14 16:28N 39°53' W 075°10'0 0.0
2018-Jun-14 15:58N 39°53' W 075°10'0 0.0
2018-Jun-14 15:28N 39°53' W 075°10'0 0.0
2018-Jun-14 14:58N 39°53' W 075°10'0 0.1
2018-Jun-14 14:28N 39°53' W 075°10'0 0.3
2018-Jun-14 13:58N 39°53' W 075°10'0 0.1
2018-Jun-14 13:28N 39°53' W 075°10'0 0.0
2018-Jun-14 12:55N 39°53' W 075°10'0 0.1
2018-Jun-14 12:28N 39°53' W 075°10'0 0.1
2018-Jun-14 11:58N 39°53' W 075°10'0 0.0
2018-Jun-14 11:28N 39°53' W 075°10'0 0.0
2018-Jun-14 10:58N 39°53' W 075°10'0 0.0
2018-Jun-14 10:28N 39°53' W 075°10'0 0.0
2018-Jun-14 09:58N 39°53' W 075°10'0 0.0
2018-Jun-14 09:28N 39°53' W 075°10'0 0.0
2018-Jun-14 08:58N 39°53' W 075°10'0 0.0
2018-Jun-14 08:28N 39°53' W 075°10'0 0.1
2018-Jun-14 07:58N 39°53' W 075°10'0 0.2
2018-Jun-14 07:28N 39°53' W 075°10'0 0.1
2018-Jun-14 06:58N 39°53' W 075°10'0 0.1
2018-Jun-14 06:28N 39°53' W 075°10'0 0.0
2018-Jun-14 05:58N 39°53' W 075°10'0 0.0
2018-Jun-14 05:28N 39°53' W 075°10'0 0.0
2018-Jun-14 04:58N 39°53' W 075°10'0 0.0
2018-Jun-14 04:28N 39°53' W 075°10'0 0.0
2018-Jun-14 03:58N 39°53' W 075°10'0 0.0
2018-Jun-14 03:28N 39°53' W 075°10'0 0.0
2018-Jun-14 02:58N 39°53' W 075°10'0 0.0
2018-Jun-14 02:28N 39°53' W 075°10'0 0.0
2018-Jun-14 01:58N 39°53' W 075°10'0 0.0
2018-Jun-14 01:28N 39°53' W 075°10'0 0.2
2018-Jun-14 00:58N 39°53' W 075°10'0 0.0
2018-Jun-14 00:28N 39°53' W 075°10'0 0.0
2018-Jun-13 23:55N 39°53' W 075°10'0 0.0
2018-Jun-13 23:28N 39°53' W 075°10'0 0.0
2018-Jun-13 22:58N 39°53' W 075°10'0 0.0
2018-Jun-13 22:28N 39°53' W 075°10'0 0.0
2018-Jun-13 21:58N 39°53' W 075°10'0 0.0
2018-Jun-13 21:28N 39°53' W 075°10'0 0.0
2018-Jun-13 20:58N 39°53' W 075°10'0 0.0
2018-Jun-13 20:28N 39°53' W 075°10'0 0.0
2018-Jun-13 19:58N 39°53' W 075°10'0 0.2
2018-Jun-13 19:28N 39°53' W 075°10'0 0.1
2018-Jun-13 19:00N 39°53' W 075°10'0 0.1
2018-Jun-13 18:30N 39°53' W 075°10'0 0.0
2018-Jun-13 18:00N 39°53' W 075°10'0 0.0
2018-Jun-13 17:30N 39°53' W 075°10'1 1.1
2018-Jun-13 17:00N 39°53' W 075°11'0 0.0
2018-Jun-13 16:28N 39°53' W 075°11'0 0.0
2018-Jun-13 15:58N 39°53' W 075°11'0 0.0
2018-Jun-13 15:28N 39°53' W 075°11'0 0.0
2018-Jun-13 14:58N 39°53' W 075°11'0 0.0
2018-Jun-13 14:28N 39°53' W 075°11'0 0.5
2018-Jun-13 14:00N 39°53' W 075°10'0 0.6
2018-Jun-13 13:30N 39°53' W 075°10'0 0.2
2018-Jun-13 13:00N 39°53' W 075°10'0 0.0
2018-Jun-13 12:30N 39°53' W 075°10'0 0.0
2018-Jun-13 12:00N 39°53' W 075°10'0 0.0
2018-Jun-13 11:30N 39°53' W 075°10'0 0.0
2018-Jun-13 11:00N 39°53' W 075°10'0 0.0
2018-Jun-13 10:30N 39°53' W 075°10'0 0.0
2018-Jun-13 10:00N 39°53' W 075°10'0 0.0
2018-Jun-13 09:30N 39°53' W 075°10'0 0.0
2018-Jun-13 09:00N 39°53' W 075°10'0 0.0
2018-Jun-13 08:30N 39°53' W 075°10'0 0.0
2018-Jun-13 08:00N 39°53' W 075°10'0 0.0
2018-Jun-13 07:30N 39°53' W 075°10'0 0.1
2018-Jun-13 07:00N 39°53' W 075°10'0 0.2
2018-Jun-13 06:30N 39°53' W 075°10'0 0.1
2018-Jun-13 06:00N 39°53' W 075°10'0 0.0
2018-Jun-13 05:30N 39°53' W 075°10'0 0.0
2018-Jun-13 05:00N 39°53' W 075°10'0 0.0
2018-Jun-13 04:30N 39°53' W 075°10'0 0.0
2018-Jun-13 03:57N 39°53' W 075°10'0 0.0
2018-Jun-13 03:30N 39°53' W 075°10'0 0.0
2018-Jun-13 03:00N 39°53' W 075°10'0 0.0
2018-Jun-13 02:30N 39°53' W 075°10'0 0.0
2018-Jun-13 02:00N 39°53' W 075°10'0 0.0
2018-Jun-13 01:30N 39°53' W 075°10'0 0.0
2018-Jun-13 01:00N 39°53' W 075°10'0 0.1
2018-Jun-13 00:30N 39°53' W 075°10'0 0.1
2018-Jun-13 00:00N 39°53' W 075°10'0 0.0
2018-Jun-12 23:30N 39°53' W 075°10'0 0.0
2018-Jun-12 23:00N 39°53' W 075°10'0 0.0
2018-Jun-12 22:30N 39°53' W 075°10'0 0.0
2018-Jun-12 22:00N 39°53' W 075°10'0 0.0
2018-Jun-12 21:30N 39°53' W 075°10'0 0.1
2018-Jun-12 20:57N 39°53' W 075°10'0 0.0
2018-Jun-12 20:30N 39°53' W 075°10'0 0.0
2018-Jun-12 20:00N 39°53' W 075°10'0 0.0
2018-Jun-12 19:30N 39°53' W 075°10'0 0.0
2018-Jun-12 19:00N 39°53' W 075°10'0 0.0
2018-Jun-12 18:30N 39°53' W 075°10'0 0.1
2018-Jun-12 18:00N 39°53' W 075°10'0 0.2
2018-Jun-12 17:30N 39°53' W 075°10'1 1.1
2018-Jun-12 16:59N 39°53' W 075°11'0 0.0
2018-Jun-12 16:29N 39°53' W 075°11'0 0.0
2018-Jun-12 15:56N 39°53' W 075°11'0 0.0
2018-Jun-12 15:29N 39°53' W 075°11'0 0.0
2018-Jun-12 14:59N 39°53' W 075°11'0 0.3
2018-Jun-12 14:30N 39°53' W 075°11'1 1.1
2018-Jun-12 13:58N 39°53' W 075°10'0 0.0
2018-Jun-12 13:28N 39°53' W 075°10'0 0.3
2018-Jun-12 12:58N 39°53' W 075°10'0 0.2
2018-Jun-12 12:28N 39°53' W 075°10'0 0.0
2018-Jun-12 11:58N 39°53' W 075°10'0 0.0
2018-Jun-12 11:28N 39°53' W 075°10'0 0.0
2018-Jun-12 10:58N 39°53' W 075°10'0 0.0
2018-Jun-12 10:28N 39°53' W 075°10'0 0.0
2018-Jun-12 09:58N 39°53' W 075°10'0 0.0
2018-Jun-12 09:28N 39°53' W 075°10'0 0.0
2018-Jun-12 08:58N 39°53' W 075°10'0 0.0
2018-Jun-12 08:30N 39°53' W 075°10'0 0.0
2018-Jun-12 08:01N 39°53' W 075°10'0 0.0
2018-Jun-12 07:30N 39°53' W 075°10'0 0.0
2018-Jun-12 07:00N 39°53' W 075°10'0 0.0
2018-Jun-12 06:30N 39°53' W 075°10'0 0.0
2018-Jun-12 06:00N 39°53' W 075°10'0 0.3
2018-Jun-12 05:30N 39°53' W 075°10'0 0.1
2018-Jun-12 05:00N 39°53' W 075°10'0 0.0
2018-Jun-12 04:30N 39°53' W 075°10'0 0.2
2018-Jun-12 04:00N 39°53' W 075°10'3 6.4
2018-Jun-12 03:30N 39°52' W 075°14'0 0.4
2018-Jun-12 03:00N 39°52' W 075°14'0 0.0
2018-Jun-12 02:28N 39°52' W 075°14'1 1.2
2018-Jun-12 02:00N 39°52' W 075°13'2 4.2
2018-Jun-12 01:29N 39°53' W 075°11'0 0.0
2018-Jun-12 00:59N 39°53' W 075°11'0 0.0
2018-Jun-12 00:29N 39°53' W 075°11'0 0.0
2018-Jun-11 23:59N 39°53' W 075°11'0 0.0
2018-Jun-11 23:29N 39°53' W 075°11'0 0.0
2018-Jun-11 22:59N 39°53' W 075°11'0 0.0
2018-Jun-11 22:29N 39°53' W 075°11'0 0.0
2018-Jun-11 21:59N 39°53' W 075°11'0 0.0
2018-Jun-11 21:29N 39°53' W 075°11'0 0.0
2018-Jun-11 21:00N 39°53' W 075°11'0 0.0
2018-Jun-11 20:30N 39°53' W 075°11'1 1.3
2018-Jun-11 20:00N 39°53' W 075°11'1 1.1
2018-Jun-11 19:30N 39°53' W 075°12'0 0.0
2018-Jun-11 18:58N 39°54' W 075°12'0 0.0
2018-Jun-11 18:28N 39°54' W 075°12'0 0.0
2018-Jun-11 17:58N 39°54' W 075°12'0 0.0
2018-Jun-11 17:28N 39°54' W 075°12'0 0.0
2018-Jun-11 16:58N 39°54' W 075°12'0 0.0
2018-Jun-11 16:28N 39°54' W 075°12'0 0.0
2018-Jun-11 15:58N 39°54' W 075°12'0 0.0
2018-Jun-11 15:28N 39°54' W 075°12'0 0.0
2018-Jun-11 14:58N 39°54' W 075°12'0 0.2
2018-Jun-11 14:31N 39°54' W 075°12'2 5.0
2018-Jun-11 14:01N 39°52' W 075°14'1 1.4
2018-Jun-11 13:30N 39°52' W 075°13'0 0.1
2018-Jun-11 12:58N 39°52' W 075°13'0 0.0
2018-Jun-11 12:28N 39°52' W 075°13'0 0.3
2018-Jun-11 11:59N 39°52' W 075°13'0 0.1
2018-Jun-11 11:30N 39°52' W 075°13'0 0.1
2018-Jun-11 10:58N 39°52' W 075°13'0 0.0
2018-Jun-11 10:28N 39°52' W 075°13'0 0.0
2018-Jun-11 09:58N 39°52' W 075°13'0 0.0
2018-Jun-11 09:28N 39°52' W 075°13'0 0.1
2018-Jun-11 08:58N 39°52' W 075°13'0 0.1
2018-Jun-11 08:28N 39°52' W 075°13'0 0.0
2018-Jun-11 07:58N 39°52' W 075°13'0 0.0
2018-Jun-11 07:28N 39°52' W 075°13'0 0.0
2018-Jun-11 06:58N 39°52' W 075°13'0 0.0
2018-Jun-11 06:28N 39°52' W 075°13'0 0.1
2018-Jun-11 05:58N 39°52' W 075°13'0 0.0
2018-Jun-11 05:28N 39°52' W 075°13'0 0.0
2018-Jun-11 04:58N 39°52' W 075°13'0 0.2
2018-Jun-11 04:28N 39°52' W 075°13'0 0.2
2018-Jun-11 03:58N 39°52' W 075°13'0 0.0
2018-Jun-11 03:28N 39°52' W 075°13'  
Track history (hours):
 
Tides and Currents Weather Stations Pressure Air Temp Water Temp Dewpoint Dewpoint Depression Visibility Wind Speed Wind Dir Waves Ship Positions

Mary Turecamo

Owner: Moran Towing Corporation, New Canaan, CT. More information available from US FCC via Universal Licensing System and Coast Guard Vessel Documentation Center.

Last reported at 2018-Jun-21 02:29 UTC. Time now 2018-Jun-21 02:40 UTC.
Position N 40°38' W 074°08'.

Length 36 m; draft 6.5 m.

Type: Towing. MMSI: 367304010.

Date/timePositionNaut miles runAvg speedWind from/ knotsBaromVisibWave heightAir tempDewpointWater temp
2018-Jun-21 02:29N 40°38' W 074°08'0 0.0
2018-Jun-21 01:47N 40°38' W 074°08'0 0.0
2018-Jun-21 01:29N 40°38' W 074°08'0 0.0
2018-Jun-21 00:59N 40°38' W 074°08'0 0.0
2018-Jun-21 00:29N 40°38' W 074°08'0 0.0
2018-Jun-20 23:59N 40°38' W 074°08'0 0.0
2018-Jun-20 23:17N 40°38' W 074°08'0 0.0
2018-Jun-20 22:47N 40°38' W 074°08'0 0.0
2018-Jun-20 21:35N 40°38' W 074°08'0 0.0
2018-Jun-20 21:23N 40°38' W 074°08'0 0.0
2018-Jun-20 19:50N 40°38' W 074°08'0 0.0
2018-Jun-20 19:23N 40°38' W 074°08'0 0.0
2018-Jun-20 18:59N 40°38' W 074°08'0 0.0
2018-Jun-20 18:29N 40°38' W 074°08'0 0.0
2018-Jun-20 17:41N 40°38' W 074°08'0 0.0
2018-Jun-20 17:29N 40°38' W 074°08'0 0.0
2018-Jun-20 16:59N 40°38' W 074°08'0 0.0
2018-Jun-20 16:29N 40°38' W 074°08'0 0.0
2018-Jun-20 15:56N 40°38' W 074°08'0 0.0
2018-Jun-20 15:11N 40°38' W 074°08'0 0.0
2018-Jun-20 14:53N 40°38' W 074°08'0 0.0
2018-Jun-20 14:23N 40°38' W 074°08'0 0.0
2018-Jun-20 13:59N 40°38' W 074°08'0 0.0
2018-Jun-20 13:29N 40°38' W 074°08'0 0.0
2018-Jun-20 12:53N 40°38' W 074°08'0 0.0
2018-Jun-20 12:29N 40°38' W 074°08'0 0.0
2018-Jun-20 11:59N 40°38' W 074°08'0 0.0
2018-Jun-20 11:29N 40°38' W 074°08'0 0.0
2018-Jun-20 10:59N 40°38' W 074°08'0 0.0
2018-Jun-20 10:29N 40°38' W 074°08'0 0.0
2018-Jun-20 09:59N 40°38' W 074°08'0 0.0
2018-Jun-20 09:29N 40°38' W 074°08'0 0.0
2018-Jun-20 08:59N 40°38' W 074°08'0 0.0
2018-Jun-20 08:30N 40°38' W 074°08'0 0.0
2018-Jun-20 07:59N 40°38' W 074°08'0 0.0
2018-Jun-20 07:29N 40°38' W 074°08'0 0.0
2018-Jun-20 07:00N 40°38' W 074°08'2 4.0
2018-Jun-20 06:30N 40°39' W 074°10'33 4.3
2018-Jun-19 22:51N 40°08' W 073°55'3 7.4
2018-Jun-19 22:30N 40°06' W 073°55'4 7.4
2018-Jun-19 22:00N 40°02' W 073°56'4 7.3
2018-Jun-19 21:30N 39°58' W 073°56'4 7.2
2018-Jun-19 21:00N 39°55' W 073°57'4 7.2
2018-Jun-19 20:28N 39°51' W 073°57'3 7.3
2018-Jun-19 20:00N 39°48' W 073°58'4 7.3
2018-Jun-19 19:29N 39°44' W 073°58'4 7.2
2018-Jun-19 19:00N 39°41' W 074°01'4 7.2
2018-Jun-19 18:30N 39°38' W 074°03'4 7.2
2018-Jun-19 18:00N 39°34' W 074°05'4 7.2
2018-Jun-19 17:29N 39°31' W 074°07'59 4.5
2018-Jun-19 04:15N 39°16' W 075°21'1 5.7
2018-Jun-19 04:00N 39°17' W 075°22'2 2.9
2018-Jun-19 03:23N 39°19' W 075°24'2 4.9
2018-Jun-19 03:00N 39°20' W 075°25'4 8.9
2018-Jun-19 02:30N 39°23' W 075°29'5 9.4
2018-Jun-19 02:00N 39°27' W 075°33'5 9.3
2018-Jun-19 01:30N 39°32' W 075°33'4 7.1
2018-Jun-19 01:00N 39°35' W 075°35'1 1.4
2018-Jun-19 00:30N 39°35' W 075°36'0 0.1
2018-Jun-19 00:00N 39°35' W 075°36'0 0.0
2018-Jun-18 23:27N 39°35' W 075°36'0 0.0
2018-Jun-18 22:57N 39°35' W 075°36'0 0.0
2018-Jun-18 22:27N 39°35' W 075°36'0 0.0
2018-Jun-18 22:00N 39°35' W 075°36'0 0.0
2018-Jun-18 21:27N 39°35' W 075°36'0 0.0
2018-Jun-18 20:57N 39°35' W 075°36'0 0.0
2018-Jun-18 20:27N 39°35' W 075°36'0 0.0
2018-Jun-18 19:57N 39°35' W 075°36'0 0.0
2018-Jun-18 19:27N 39°35' W 075°36'0 0.0
2018-Jun-18 18:57N 39°35' W 075°36'0 0.0
2018-Jun-18 18:24N 39°35' W 075°36'0 0.0
2018-Jun-18 17:51N 39°35' W 075°36'0 0.0
2018-Jun-18 17:30N 39°35' W 075°36'0 0.0
2018-Jun-18 16:54N 39°35' W 075°36'0 0.0
2018-Jun-18 16:30N 39°35' W 075°36'0 0.0
2018-Jun-18 16:00N 39°35' W 075°36'0 0.0
2018-Jun-18 15:30N 39°35' W 075°36'0 0.0
2018-Jun-18 15:00N 39°35' W 075°36'0 0.0
2018-Jun-18 14:30N 39°35' W 075°36'0 0.0
2018-Jun-18 14:00N 39°35' W 075°36'0 0.0
2018-Jun-18 13:30N 39°35' W 075°36'0 0.0
2018-Jun-18 13:00N 39°35' W 075°36'0 0.0
2018-Jun-18 12:30N 39°35' W 075°36'0 0.0
2018-Jun-18 12:00N 39°35' W 075°36'0 0.0
2018-Jun-18 11:21N 39°35' W 075°36'0 0.0
2018-Jun-18 11:00N 39°35' W 075°36'0 0.0
2018-Jun-18 10:30N 39°35' W 075°36'0 0.0
2018-Jun-18 10:00N 39°35' W 075°36'0 0.0
2018-Jun-18 09:30N 39°35' W 075°36'0 0.0
2018-Jun-18 09:00N 39°35' W 075°36'0 0.0
2018-Jun-18 08:27N 39°35' W 075°36'0 0.0
2018-Jun-18 08:00N 39°35' W 075°36'0 0.0
2018-Jun-18 07:09N 39°35' W 075°36'0 0.1
2018-Jun-18 07:00N 39°35' W 075°36'0 0.0
2018-Jun-18 06:30N 39°35' W 075°36'0 0.0
2018-Jun-18 06:00N 39°35' W 075°36'0 0.0
2018-Jun-18 05:24N 39°35' W 075°36'0 0.0
2018-Jun-18 05:00N 39°35' W 075°36'0 0.0
2018-Jun-18 04:30N 39°35' W 075°36'0 0.0
2018-Jun-18 04:00N 39°35' W 075°36'1 2.4
2018-Jun-18 03:29N 39°35' W 075°34'2 4.1
2018-Jun-18 03:00N 39°37' W 075°35'5 9.8
2018-Jun-18 02:30N 39°41' W 075°31'510.8
2018-Jun-18 02:00N 39°46' W 075°29'510.5
2018-Jun-18 01:30N 39°49' W 075°23'510.5
2018-Jun-18 01:00N 39°51' W 075°17'510.0
2018-Jun-18 00:31N 39°53' W 075°11'1 1.6
2018-Jun-18 00:00N 39°53' W 075°10'0 0.0
2018-Jun-17 23:28N 39°53' W 075°10'0 0.2
2018-Jun-17 22:58N 39°53' W 075°10'0 0.0
2018-Jun-17 22:28N 39°53' W 075°10'0 0.0
2018-Jun-17 21:58N 39°53' W 075°10'0 0.0
2018-Jun-17 21:28N 39°53' W 075°10'0 0.0
2018-Jun-17 20:58N 39°53' W 075°10'0 0.0
2018-Jun-17 20:28N 39°53' W 075°10'0 0.0
2018-Jun-17 19:58N 39°53' W 075°10'0 0.0
2018-Jun-17 19:28N 39°53' W 075°10'0 0.0
2018-Jun-17 18:58N 39°53' W 075°10'0 0.0
2018-Jun-17 18:29N 39°53' W 075°10'0 0.0
2018-Jun-17 18:00N 39°53' W 075°10'0 0.0
2018-Jun-17 17:30N 39°53' W 075°10'0 0.1
2018-Jun-17 17:00N 39°53' W 075°10'0 0.1
2018-Jun-17 16:30N 39°53' W 075°10'0 0.9
2018-Jun-17 16:00N 39°53' W 075°11'0 0.0
2018-Jun-17 15:30N 39°53' W 075°11'0 0.0
2018-Jun-17 15:00N 39°53' W 075°11'0 0.0
2018-Jun-17 14:30N 39°53' W 075°11'0 0.0
2018-Jun-17 14:00N 39°53' W 075°11'0 0.0
2018-Jun-17 13:30N 39°53' W 075°11'0 0.0
2018-Jun-17 13:00N 39°53' W 075°11'0 0.0
2018-Jun-17 12:30N 39°53' W 075°11'0 0.0
2018-Jun-17 12:01N 39°53' W 075°11'0 0.9
2018-Jun-17 11:29N 39°53' W 075°10'0 0.0
2018-Jun-17 10:59N 39°53' W 075°10'0 0.0
2018-Jun-17 10:28N 39°53' W 075°10'0 0.2
2018-Jun-17 09:59N 39°53' W 075°10'0 0.0
2018-Jun-17 09:29N 39°53' W 075°10'0 0.0
2018-Jun-17 08:59N 39°53' W 075°10'0 0.0
2018-Jun-17 08:29N 39°53' W 075°10'0 0.0
2018-Jun-17 07:59N 39°53' W 075°10'0 0.0
2018-Jun-17 07:29N 39°53' W 075°10'0 0.0
2018-Jun-17 06:59N 39°53' W 075°10'0 0.0
2018-Jun-17 06:29N 39°53' W 075°10'0 0.0
2018-Jun-17 05:59N 39°53' W 075°10'0 0.0
2018-Jun-17 05:29N 39°53' W 075°10'0 0.0
2018-Jun-17 04:59N 39°53' W 075°10'0 0.1
2018-Jun-17 04:29N 39°53' W 075°10'0 0.1
2018-Jun-17 03:59N 39°53' W 075°10'0 0.2
2018-Jun-17 03:29N 39°53' W 075°10'0 0.0
2018-Jun-17 02:59N 39°53' W 075°10'0 0.0
2018-Jun-17 02:29N 39°53' W 075°10'0 0.0
2018-Jun-17 01:59N 39°53' W 075°10'0 0.0
2018-Jun-17 01:29N 39°53' W 075°10'0 0.0
2018-Jun-17 00:59N 39°53' W 075°10'0 0.0
2018-Jun-17 00:29N 39°53' W 075°10'0 0.0
2018-Jun-16 23:59N 39°53' W 075°10'0 0.0
2018-Jun-16 23:29N 39°53' W 075°10'0 0.0
2018-Jun-16 22:56N 39°53' W 075°10'0 0.0
2018-Jun-16 22:29N 39°53' W 075°10'0 0.3
2018-Jun-16 21:59N 39°53' W 075°10'0 0.0
2018-Jun-16 21:29N 39°53' W 075°10'0 0.0
2018-Jun-16 20:59N 39°53' W 075°10'0 0.0
2018-Jun-16 20:29N 39°53' W 075°10'0 0.0
2018-Jun-16 19:59N 39°53' W 075°10'0 0.0
2018-Jun-16 19:29N 39°53' W 075°10'0 0.0
2018-Jun-16 18:59N 39°53' W 075°10'0 0.0
2018-Jun-16 18:29N 39°53' W 075°10'0 0.0
2018-Jun-16 17:58N 39°53' W 075°10'0 0.0
2018-Jun-16 17:26N 39°53' W 075°10'0 0.0
2018-Jun-16 16:59N 39°53' W 075°10'0 0.0
2018-Jun-16 16:29N 39°53' W 075°10'0 0.3
2018-Jun-16 15:59N 39°53' W 075°10'0 0.1
2018-Jun-16 15:29N 39°53' W 075°10'0 0.0
2018-Jun-16 14:58N 39°53' W 075°10'0 0.0
2018-Jun-16 14:29N 39°53' W 075°10'0 0.0
2018-Jun-16 13:58N 39°53' W 075°10'0 0.0
2018-Jun-16 13:28N 39°53' W 075°10'0 0.0
2018-Jun-16 12:58N 39°53' W 075°10'0 0.0
2018-Jun-16 12:28N 39°53' W 075°10'0 0.0
2018-Jun-16 11:55N 39°53' W 075°10'0 0.0
2018-Jun-16 11:28N 39°53' W 075°10'0 0.0
2018-Jun-16 10:59N 39°53' W 075°10'0 0.0
2018-Jun-16 10:29N 39°53' W 075°10'0 0.0
2018-Jun-16 09:58N 39°53' W 075°10'0 0.2
2018-Jun-16 09:28N 39°53' W 075°10'0 0.1
2018-Jun-16 08:58N 39°53' W 075°10'0 0.0
2018-Jun-16 08:28N 39°53' W 075°10'0 0.0
2018-Jun-16 07:58N 39°53' W 075°10'0 0.0
2018-Jun-16 07:28N 39°53' W 075°10'0 0.0
2018-Jun-16 06:58N 39°53' W 075°10'0 0.0
2018-Jun-16 06:28N 39°53' W 075°10'0 0.0
2018-Jun-16 05:58N 39°53' W 075°10'0 0.0
2018-Jun-16 05:29N 39°53' W 075°10'0 0.0
2018-Jun-16 04:58N 39°53' W 075°10'0 0.0
2018-Jun-16 04:28N 39°53' W 075°10'0 0.0
2018-Jun-16 03:58N 39°53' W 075°10'0 0.1
2018-Jun-16 03:25N 39°53' W 075°10'0 0.2
2018-Jun-16 02:58N 39°53' W 075°10'0 0.1
2018-Jun-16 02:28N 39°53' W 075°10'0 0.0
2018-Jun-16 01:59N 39°53' W 075°10'0 0.0
2018-Jun-16 01:29N 39°53' W 075°10'0 0.0
2018-Jun-16 00:58N 39°53' W 075°10'0 0.0
2018-Jun-16 00:29N 39°53' W 075°10'0 0.0
2018-Jun-15 23:59N 39°53' W 075°10'0 0.0
2018-Jun-15 23:28N 39°53' W 075°10'0 0.0
2018-Jun-15 22:58N 39°53' W 075°10'0 0.0
2018-Jun-15 22:29N 39°53' W 075°10'0 0.0
2018-Jun-15 21:58N 39°53' W 075°10'0 0.3
2018-Jun-15 21:29N 39°53' W 075°10'0 0.0
2018-Jun-15 20:59N 39°53' W 075°10'0 0.1
2018-Jun-15 20:28N 39°53' W 075°10'0 0.0
2018-Jun-15 19:50N 39°53' W 075°10'0 0.0
2018-Jun-15 19:28N 39°53' W 075°10'0 0.0
2018-Jun-15 18:58N 39°53' W 075°10'0 0.0
2018-Jun-15 18:28N 39°53' W 075°10'0 0.0
2018-Jun-15 17:58N 39°53' W 075°10'0 0.0
2018-Jun-15 17:28N 39°53' W 075°10'0 0.0
2018-Jun-15 16:58N 39°53' W 075°10'0 0.0
2018-Jun-15 16:28N 39°53' W 075°10'0 0.1
2018-Jun-15 15:58N 39°53' W 075°10'0 0.1
2018-Jun-15 15:28N 39°53' W 075°10'0 0.1
2018-Jun-15 14:58N 39°53' W 075°10'0 0.1
2018-Jun-15 14:28N 39°53' W 075°10'0 0.1
2018-Jun-15 13:58N 39°53' W 075°10'0 0.0
2018-Jun-15 13:28N 39°53' W 075°10'0 0.0
2018-Jun-15 12:55N 39°53' W 075°10'0 0.0
2018-Jun-15 12:28N 39°53' W 075°10'0 0.0
2018-Jun-15 11:58N 39°53' W 075°10'0 0.0
2018-Jun-15 11:28N 39°53' W 075°10'0 0.0
2018-Jun-15 10:58N 39°53' W 075°10'0 0.0
2018-Jun-15 10:28N 39°53' W 075°10'0 0.0
2018-Jun-15 09:58N 39°53' W 075°10'0 0.0
2018-Jun-15 09:28N 39°53' W 075°10'0 0.1
2018-Jun-15 08:58N 39°53' W 075°10'0 0.2
2018-Jun-15 08:28N 39°53' W 075°10'0 0.1
2018-Jun-15 07:58N 39°53' W 075°10'0 0.0
2018-Jun-15 07:28N 39°53' W 075°10'0 0.0
2018-Jun-15 06:58N 39°53' W 075°10'0 0.0
2018-Jun-15 06:28N 39°53' W 075°10'0 0.0
2018-Jun-15 05:58N 39°53' W 075°10'0 0.0
2018-Jun-15 05:28N 39°53' W 075°10'0 0.0
2018-Jun-15 04:58N 39°53' W 075°10'0 0.0
2018-Jun-15 04:28N 39°53' W 075°10'0 0.0
2018-Jun-15 03:58N 39°53' W 075°10'0 0.0
2018-Jun-15 03:28N 39°53' W 075°10'0 0.0
2018-Jun-15 02:58N 39°53' W 075°10'0 0.0
2018-Jun-15 02:28N 39°53' W 075°10'0 0.2
2018-Jun-15 01:58N 39°53' W 075°10'0 0.1
2018-Jun-15 01:28N 39°53' W 075°10'0 0.0
2018-Jun-15 00:58N 39°53' W 075°10'0 0.0
2018-Jun-15 00:28N 39°53' W 075°10'0 0.1
2018-Jun-14 23:58N 39°53' W 075°10'0 0.0
2018-Jun-14 23:28N 39°53' W 075°10'0 0.0
2018-Jun-14 22:58N 39°53' W 075°10'0 0.0
2018-Jun-14 22:28N 39°53' W 075°10'0 0.0
2018-Jun-14 21:58N 39°53' W 075°10'0 0.0
2018-Jun-14 21:28N 39°53' W 075°10'0 0.2
2018-Jun-14 20:58N 39°53' W 075°10'0 0.1
2018-Jun-14 20:28N 39°53' W 075°10'0 0.0
2018-Jun-14 19:58N 39°53' W 075°10'0 0.1
2018-Jun-14 19:28N 39°53' W 075°10'0 0.0
2018-Jun-14 18:58N 39°53' W 075°10'0 0.0
2018-Jun-14 18:28N 39°53' W 075°10'0 0.0
2018-Jun-14 17:58N 39°53' W 075°10'0 0.0
2018-Jun-14 17:28N 39°53' W 075°10'0 0.0
2018-Jun-14 16:58N 39°53' W 075°10'0 0.0
2018-Jun-14 16:28N 39°53' W 075°10'0 0.0
2018-Jun-14 15:58N 39°53' W 075°10'0 0.0
2018-Jun-14 15:28N 39°53' W 075°10'0 0.0
2018-Jun-14 14:58N 39°53' W 075°10'0 0.1
2018-Jun-14 14:28N 39°53' W 075°10'0 0.3
2018-Jun-14 13:58N 39°53' W 075°10'0 0.1
2018-Jun-14 13:28N 39°53' W 075°10'0 0.0
2018-Jun-14 12:55N 39°53' W 075°10'0 0.1
2018-Jun-14 12:28N 39°53' W 075°10'0 0.1
2018-Jun-14 11:58N 39°53' W 075°10'0 0.0
2018-Jun-14 11:28N 39°53' W 075°10'0 0.0
2018-Jun-14 10:58N 39°53' W 075°10'0 0.0
2018-Jun-14 10:28N 39°53' W 075°10'0 0.0
2018-Jun-14 09:58N 39°53' W 075°10'0 0.0
2018-Jun-14 09:28N 39°53' W 075°10'0 0.0
2018-Jun-14 08:58N 39°53' W 075°10'0 0.0
2018-Jun-14 08:28N 39°53' W 075°10'0 0.1
2018-Jun-14 07:58N 39°53' W 075°10'0 0.2
2018-Jun-14 07:28N 39°53' W 075°10'0 0.1
2018-Jun-14 06:58N 39°53' W 075°10'0 0.1
2018-Jun-14 06:28N 39°53' W 075°10'0 0.0
2018-Jun-14 05:58N 39°53' W 075°10'0 0.0
2018-Jun-14 05:28N 39°53' W 075°10'0 0.0
2018-Jun-14 04:58N 39°53' W 075°10'0 0.0
2018-Jun-14 04:28N 39°53' W 075°10'0 0.0
2018-Jun-14 03:58N 39°53' W 075°10'0 0.0
2018-Jun-14 03:28N 39°53' W 075°10'0 0.0
2018-Jun-14 02:58N 39°53' W 075°10'0 0.0
2018-Jun-14 02:28N 39°53' W 075°10'0 0.0
2018-Jun-14 01:58N 39°53' W 075°10'0 0.0
2018-Jun-14 01:28N 39°53' W 075°10'0 0.2
2018-Jun-14 00:58N 39°53' W 075°10'0 0.0
2018-Jun-14 00:28N 39°53' W 075°10'0 0.0
2018-Jun-13 23:55N 39°53' W 075°10'0 0.0
2018-Jun-13 23:28N 39°53' W 075°10'0 0.0
2018-Jun-13 22:58N 39°53' W 075°10'0 0.0
2018-Jun-13 22:28N 39°53' W 075°10'0 0.0
2018-Jun-13 21:58N 39°53' W 075°10'0 0.0
2018-Jun-13 21:28N 39°53' W 075°10'0 0.0
2018-Jun-13 20:58N 39°53' W 075°10'0 0.0
2018-Jun-13 20:28N 39°53' W 075°10'0 0.0
2018-Jun-13 19:58N 39°53' W 075°10'0 0.2
2018-Jun-13 19:28N 39°53' W 075°10'0 0.1
2018-Jun-13 19:00N 39°53' W 075°10'0 0.1
2018-Jun-13 18:30N 39°53' W 075°10'0 0.0
2018-Jun-13 18:00N 39°53' W 075°10'0 0.0
2018-Jun-13 17:30N 39°53' W 075°10'1 1.1
2018-Jun-13 17:00N 39°53' W 075°11'0 0.0
2018-Jun-13 16:28N 39°53' W 075°11'0 0.0
2018-Jun-13 15:58N 39°53' W 075°11'0 0.0
2018-Jun-13 15:28N 39°53' W 075°11'0 0.0
2018-Jun-13 14:58N 39°53' W 075°11'0 0.0
2018-Jun-13 14:28N 39°53' W 075°11'0 0.5
2018-Jun-13 14:00N 39°53' W 075°10'0 0.6
2018-Jun-13 13:30N 39°53' W 075°10'0 0.2
2018-Jun-13 13:00N 39°53' W 075°10'0 0.0
2018-Jun-13 12:30N 39°53' W 075°10'0 0.0
2018-Jun-13 12:00N 39°53' W 075°10'0 0.0
2018-Jun-13 11:30N 39°53' W 075°10'0 0.0
2018-Jun-13 11:00N 39°53' W 075°10'0 0.0
2018-Jun-13 10:30N 39°53' W 075°10'0 0.0
2018-Jun-13 10:00N 39°53' W 075°10'0 0.0
2018-Jun-13 09:30N 39°53' W 075°10'0 0.0
2018-Jun-13 09:00N 39°53' W 075°10'0 0.0
2018-Jun-13 08:30N 39°53' W 075°10'0 0.0
2018-Jun-13 08:00N 39°53' W 075°10'0 0.0
2018-Jun-13 07:30N 39°53' W 075°10'0 0.1
2018-Jun-13 07:00N 39°53' W 075°10'0 0.2
2018-Jun-13 06:30N 39°53' W 075°10'0 0.1
2018-Jun-13 06:00N 39°53' W 075°10'0 0.0
2018-Jun-13 05:30N 39°53' W 075°10'0 0.0
2018-Jun-13 05:00N 39°53' W 075°10'0 0.0
2018-Jun-13 04:30N 39°53' W 075°10'0 0.0
2018-Jun-13 03:57N 39°53' W 075°10'0 0.0
2018-Jun-13 03:30N 39°53' W 075°10'0 0.0
2018-Jun-13 03:00N 39°53' W 075°10'0 0.0
2018-Jun-13 02:30N 39°53' W 075°10'0 0.0
2018-Jun-13 02:00N 39°53' W 075°10'0 0.0
2018-Jun-13 01:30N 39°53' W 075°10'0 0.0
2018-Jun-13 01:00N 39°53' W 075°10'0 0.1
2018-Jun-13 00:30N 39°53' W 075°10'0 0.1
2018-Jun-13 00:00N 39°53' W 075°10'0 0.0
2018-Jun-12 23:30N 39°53' W 075°10'0 0.0
2018-Jun-12 23:00N 39°53' W 075°10'0 0.0
2018-Jun-12 22:30N 39°53' W 075°10'0 0.0
2018-Jun-12 22:00N 39°53' W 075°10'0 0.0
2018-Jun-12 21:30N 39°53' W 075°10'0 0.1
2018-Jun-12 20:57N 39°53' W 075°10'0 0.0
2018-Jun-12 20:30N 39°53' W 075°10'0 0.0
2018-Jun-12 20:00N 39°53' W 075°10'0 0.0
2018-Jun-12 19:30N 39°53' W 075°10'0 0.0
2018-Jun-12 19:00N 39°53' W 075°10'0 0.0
2018-Jun-12 18:30N 39°53' W 075°10'0 0.1
2018-Jun-12 18:00N 39°53' W 075°10'0 0.2
2018-Jun-12 17:30N 39°53' W 075°10'1 1.1
2018-Jun-12 16:59N 39°53' W 075°11'0 0.0
2018-Jun-12 16:29N 39°53' W 075°11'0 0.0
2018-Jun-12 15:56N 39°53' W 075°11'0 0.0
2018-Jun-12 15:29N 39°53' W 075°11'0 0.0
2018-Jun-12 14:59N 39°53' W 075°11'0 0.3
2018-Jun-12 14:30N 39°53' W 075°11'1 1.1
2018-Jun-12 13:58N 39°53' W 075°10'0 0.0
2018-Jun-12 13:28N 39°53' W 075°10'0 0.3
2018-Jun-12 12:58N 39°53' W 075°10'0 0.2
2018-Jun-12 12:28N 39°53' W 075°10'0 0.0
2018-Jun-12 11:58N 39°53' W 075°10'0 0.0
2018-Jun-12 11:28N 39°53' W 075°10'0 0.0
2018-Jun-12 10:58N 39°53' W 075°10'0 0.0
2018-Jun-12 10:28N 39°53' W 075°10'0 0.0
2018-Jun-12 09:58N 39°53' W 075°10'0 0.0
2018-Jun-12 09:28N 39°53' W 075°10'0 0.0
2018-Jun-12 08:58N 39°53' W 075°10'0 0.0
2018-Jun-12 08:30N 39°53' W 075°10'0 0.0
2018-Jun-12 08:01N 39°53' W 075°10'0 0.0
2018-Jun-12 07:30N 39°53' W 075°10'0 0.0
2018-Jun-12 07:00N 39°53' W 075°10'0 0.0
2018-Jun-12 06:30N 39°53' W 075°10'0 0.0
2018-Jun-12 06:00N 39°53' W 075°10'0 0.3
2018-Jun-12 05:30N 39°53' W 075°10'0 0.1
2018-Jun-12 05:00N 39°53' W 075°10'0 0.0
2018-Jun-12 04:30N 39°53' W 075°10'0 0.2
2018-Jun-12 04:00N 39°53' W 075°10'3 6.4
2018-Jun-12 03:30N 39°52' W 075°14'0 0.4
2018-Jun-12 03:00N 39°52' W 075°14'0 0.0
2018-Jun-12 02:28N 39°52' W 075°14'1 1.2
2018-Jun-12 02:00N 39°52' W 075°13'2 4.2
2018-Jun-12 01:29N 39°53' W 075°11'0 0.0
2018-Jun-12 00:59N 39°53' W 075°11'0 0.0
2018-Jun-12 00:29N 39°53' W 075°11'0 0.0
2018-Jun-11 23:59N 39°53' W 075°11'0 0.0
2018-Jun-11 23:29N 39°53' W 075°11'0 0.0
2018-Jun-11 22:59N 39°53' W 075°11'0 0.0
2018-Jun-11 22:29N 39°53' W 075°11'0 0.0
2018-Jun-11 21:59N 39°53' W 075°11'0 0.0
2018-Jun-11 21:29N 39°53' W 075°11'0 0.0
2018-Jun-11 21:00N 39°53' W 075°11'0 0.0
2018-Jun-11 20:30N 39°53' W 075°11'1 1.3
2018-Jun-11 20:00N 39°53' W 075°11'1 1.1
2018-Jun-11 19:30N 39°53' W 075°12'0 0.0
2018-Jun-11 18:58N 39°54' W 075°12'0 0.0
2018-Jun-11 18:28N 39°54' W 075°12'0 0.0
2018-Jun-11 17:58N 39°54' W 075°12'0 0.0
2018-Jun-11 17:28N 39°54' W 075°12'0 0.0
2018-Jun-11 16:58N 39°54' W 075°12'0 0.0
2018-Jun-11 16:28N 39°54' W 075°12'0 0.0
2018-Jun-11 15:58N 39°54' W 075°12'0 0.0
2018-Jun-11 15:28N 39°54' W 075°12'0 0.0
2018-Jun-11 14:58N 39°54' W 075°12'0 0.2
2018-Jun-11 14:31N 39°54' W 075°12'2 5.0
2018-Jun-11 14:01N 39°52' W 075°14'1 1.4
2018-Jun-11 13:30N 39°52' W 075°13'0 0.1
2018-Jun-11 12:58N 39°52' W 075°13'0 0.0
2018-Jun-11 12:28N 39°52' W 075°13'0 0.3
2018-Jun-11 11:59N 39°52' W 075°13'0 0.1
2018-Jun-11 11:30N 39°52' W 075°13'0 0.1
2018-Jun-11 10:58N 39°52' W 075°13'0 0.0
2018-Jun-11 10:28N 39°52' W 075°13'0 0.0
2018-Jun-11 09:58N 39°52' W 075°13'0 0.0
2018-Jun-11 09:28N 39°52' W 075°13'0 0.1
2018-Jun-11 08:58N 39°52' W 075°13'0 0.1
2018-Jun-11 08:28N 39°52' W 075°13'0 0.0
2018-Jun-11 07:58N 39°52' W 075°13'0 0.0
2018-Jun-11 07:28N 39°52' W 075°13'0 0.0
2018-Jun-11 06:58N 39°52' W 075°13'0 0.0
2018-Jun-11 06:28N 39°52' W 075°13'0 0.1
2018-Jun-11 05:58N 39°52' W 075°13'0 0.0
2018-Jun-11 05:28N 39°52' W 075°13'0 0.0
2018-Jun-11 04:58N 39°52' W 075°13'0 0.2
2018-Jun-11 04:28N 39°52' W 075°13'0 0.2
2018-Jun-11 03:58N 39°52' W 075°13'0 0.0
2018-Jun-11 03:28N 39°52' W 075°13'  

Dump ship's entire track history